sensor_id;sensor_type;location;lat;lon;timestamp;P1;durP1;ratioP1;P2;durP2;ratioP2
27566;SDS011;15006;48.584;9.186;2023-04-15T00:00:32;3.58;;;2.20;;
27566;SDS011;15006;48.584;9.186;2023-04-15T00:02:58;4.50;;;2.22;;
27566;SDS011;15006;48.584;9.186;2023-04-15T00:05:28;3.15;;;2.47;;
27566;SDS011;15006;48.584;9.186;2023-04-15T00:07:54;4.28;;;2.63;;
27566;SDS011;15006;48.584;9.186;2023-04-15T00:10:20;5.28;;;2.40;;
27566;SDS011;15006;48.584;9.186;2023-04-15T00:12:46;2.67;;;2.28;;
27566;SDS011;15006;48.584;9.186;2023-04-15T00:15:12;2.88;;;2.53;;
27566;SDS011;15006;48.584;9.186;2023-04-15T00:17:38;4.43;;;2.78;;
27566;SDS011;15006;48.584;9.186;2023-04-15T00:20:04;2.67;;;2.40;;
27566;SDS011;15006;48.584;9.186;2023-04-15T00:22:31;3.97;;;2.55;;
27566;SDS011;15006;48.584;9.186;2023-04-15T00:24:57;2.97;;;2.75;;
27566;SDS011;15006;48.584;9.186;2023-04-15T00:27:23;3.08;;;2.88;;
27566;SDS011;15006;48.584;9.186;2023-04-15T00:29:49;4.28;;;3.35;;
27566;SDS011;15006;48.584;9.186;2023-04-15T00:32:16;7.65;;;3.17;;
27566;SDS011;15006;48.584;9.186;2023-04-15T00:34:42;5.05;;;3.50;;
27566;SDS011;15006;48.584;9.186;2023-04-15T00:37:08;12.23;;;3.47;;
27566;SDS011;15006;48.584;9.186;2023-04-15T00:39:35;4.88;;;3.28;;
27566;SDS011;15006;48.584;9.186;2023-04-15T00:42:01;5.57;;;3.28;;
27566;SDS011;15006;48.584;9.186;2023-04-15T00:44:29;4.45;;;3.42;;
27566;SDS011;15006;48.584;9.186;2023-04-15T00:46:55;6.45;;;3.95;;
27566;SDS011;15006;48.584;9.186;2023-04-15T00:49:22;3.53;;;3.22;;
27566;SDS011;15006;48.584;9.186;2023-04-15T00:51:48;7.30;;;4.30;;
27566;SDS011;15006;48.584;9.186;2023-04-15T00:54:14;5.20;;;3.78;;
27566;SDS011;15006;48.584;9.186;2023-04-15T00:56:40;6.82;;;4.38;;
27566;SDS011;15006;48.584;9.186;2023-04-15T00:59:07;6.93;;;4.60;;
27566;SDS011;15006;48.584;9.186;2023-04-15T01:01:34;5.90;;;5.15;;
27566;SDS011;15006;48.584;9.186;2023-04-15T01:04:01;7.40;;;5.47;;
27566;SDS011;15006;48.584;9.186;2023-04-15T01:06:28;8.15;;;5.43;;
27566;SDS011;15006;48.584;9.186;2023-04-15T01:08:56;7.63;;;5.35;;
27566;SDS011;15006;48.584;9.186;2023-04-15T01:11:23;5.72;;;5.22;;
27566;SDS011;15006;48.584;9.186;2023-04-15T01:13:50;5.72;;;4.97;;
27566;SDS011;15006;48.584;9.186;2023-04-15T01:16:17;5.18;;;4.68;;
27566;SDS011;15006;48.584;9.186;2023-04-15T01:18:44;5.90;;;4.40;;
27566;SDS011;15006;48.584;9.186;2023-04-15T01:21:10;6.30;;;4.80;;
27566;SDS011;15006;48.584;9.186;2023-04-15T01:23:37;4.45;;;4.10;;
27566;SDS011;15006;48.584;9.186;2023-04-15T01:26:04;5.68;;;4.72;;
27566;SDS011;15006;48.584;9.186;2023-04-15T01:28:36;5.82;;;4.57;;
27566;SDS011;15006;48.584;9.186;2023-04-15T01:31:06;7.10;;;4.32;;
27566;SDS011;15006;48.584;9.186;2023-04-15T01:33:38;6.10;;;4.20;;
27566;SDS011;15006;48.584;9.186;2023-04-15T01:36:25;7.10;;;4.25;;
27566;SDS011;15006;48.584;9.186;2023-04-15T01:38:52;4.30;;;3.90;;
27566;SDS011;15006;48.584;9.186;2023-04-15T01:41:25;6.30;;;3.90;;
27566;SDS011;15006;48.584;9.186;2023-04-15T01:43:53;6.03;;;4.38;;
27566;SDS011;15006;48.584;9.186;2023-04-15T01:46:21;6.05;;;4.40;;
27566;SDS011;15006;48.584;9.186;2023-04-15T01:48:48;5.38;;;4.82;;
27566;SDS011;15006;48.584;9.186;2023-04-15T01:51:16;9.73;;;4.75;;
27566;SDS011;15006;48.584;9.186;2023-04-15T01:53:43;8.00;;;5.28;;
27566;SDS011;15006;48.584;9.186;2023-04-15T01:56:13;8.05;;;4.60;;
27566;SDS011;15006;48.584;9.186;2023-04-15T01:58:41;7.32;;;4.60;;
27566;SDS011;15006;48.584;9.186;2023-04-15T02:01:08;5.40;;;4.82;;
27566;SDS011;15006;48.584;9.186;2023-04-15T02:03:36;6.63;;;4.45;;
27566;SDS011;15006;48.584;9.186;2023-04-15T02:06:04;5.53;;;4.43;;
27566;SDS011;15006;48.584;9.186;2023-04-15T02:08:32;5.75;;;4.50;;
27566;SDS011;15006;48.584;9.186;2023-04-15T02:10:59;4.63;;;4.15;;
27566;SDS011;15006;48.584;9.186;2023-04-15T02:13:27;7.22;;;4.53;;
27566;SDS011;15006;48.584;9.186;2023-04-15T02:15:54;7.10;;;4.70;;
27566;SDS011;15006;48.584;9.186;2023-04-15T02:18:22;4.47;;;4.10;;
27566;SDS011;15006;48.584;9.186;2023-04-15T02:20:50;6.80;;;4.40;;
27566;SDS011;15006;48.584;9.186;2023-04-15T02:23:18;4.97;;;4.30;;
27566;SDS011;15006;48.584;9.186;2023-04-15T02:25:45;5.65;;;3.83;;
27566;SDS011;15006;48.584;9.186;2023-04-15T02:28:12;4.78;;;3.95;;
27566;SDS011;15006;48.584;9.186;2023-04-15T02:30:40;4.13;;;3.72;;
27566;SDS011;15006;48.584;9.186;2023-04-15T02:33:07;6.40;;;4.07;;
27566;SDS011;15006;48.584;9.186;2023-04-15T02:35:34;4.82;;;4.28;;
27566;SDS011;15006;48.584;9.186;2023-04-15T02:38:05;3.60;;;3.20;;
27566;SDS011;15006;48.584;9.186;2023-04-15T02:40:32;6.13;;;4.03;;
27566;SDS011;15006;48.584;9.186;2023-04-15T02:42:59;7.57;;;4.30;;
27566;SDS011;15006;48.584;9.186;2023-04-15T02:45:26;5.70;;;4.50;;
27566;SDS011;15006;48.584;9.186;2023-04-15T02:47:54;8.07;;;4.47;;
27566;SDS011;15006;48.584;9.186;2023-04-15T02:50:21;4.03;;;3.55;;
27566;SDS011;15006;48.584;9.186;2023-04-15T02:52:49;6.90;;;4.28;;
27566;SDS011;15006;48.584;9.186;2023-04-15T02:55:17;4.57;;;4.07;;
27566;SDS011;15006;48.584;9.186;2023-04-15T02:57:44;7.57;;;4.07;;
27566;SDS011;15006;48.584;9.186;2023-04-15T03:00:12;5.95;;;4.20;;
27566;SDS011;15006;48.584;9.186;2023-04-15T03:02:39;7.80;;;4.40;;
27566;SDS011;15006;48.584;9.186;2023-04-15T03:05:11;5.53;;;4.22;;
27566;SDS011;15006;48.584;9.186;2023-04-15T03:07:39;5.13;;;4.13;;
27566;SDS011;15006;48.584;9.186;2023-04-15T03:10:07;4.38;;;4.00;;
27566;SDS011;15006;48.584;9.186;2023-04-15T03:12:35;6.88;;;4.00;;
27566;SDS011;15006;48.584;9.186;2023-04-15T03:15:03;6.57;;;3.92;;
27566;SDS011;15006;48.584;9.186;2023-04-15T03:17:30;5.43;;;4.00;;
27566;SDS011;15006;48.584;9.186;2023-04-15T03:19:58;4.65;;;4.20;;
27566;SDS011;15006;48.584;9.186;2023-04-15T03:22:25;4.72;;;3.95;;
27566;SDS011;15006;48.584;9.186;2023-04-15T03:24:52;5.78;;;3.42;;
27566;SDS011;15006;48.584;9.186;2023-04-15T03:27:19;4.80;;;3.50;;
27566;SDS011;15006;48.584;9.186;2023-04-15T03:29:46;10.73;;;4.10;;
27566;SDS011;15006;48.584;9.186;2023-04-15T03:32:13;8.40;;;4.85;;
27566;SDS011;15006;48.584;9.186;2023-04-15T03:34:41;5.82;;;4.60;;
27566;SDS011;15006;48.584;9.186;2023-04-15T03:37:08;7.18;;;5.07;;
27566;SDS011;15006;48.584;9.186;2023-04-15T03:39:35;6.55;;;4.80;;
27566;SDS011;15006;48.584;9.186;2023-04-15T03:42:03;5.40;;;4.03;;
27566;SDS011;15006;48.584;9.186;2023-04-15T03:44:30;8.77;;;5.15;;
27566;SDS011;15006;48.584;9.186;2023-04-15T03:46:58;9.45;;;5.07;;
27566;SDS011;15006;48.584;9.186;2023-04-15T03:49:25;6.07;;;5.25;;
27566;SDS011;15006;48.584;9.186;2023-04-15T03:51:53;7.72;;;4.53;;
27566;SDS011;15006;48.584;9.186;2023-04-15T03:54:20;6.90;;;4.63;;
27566;SDS011;15006;48.584;9.186;2023-04-15T03:56:47;5.50;;;5.00;;
27566;SDS011;15006;48.584;9.186;2023-04-15T03:59:14;6.25;;;5.65;;
27566;SDS011;15006;48.584;9.186;2023-04-15T04:01:42;8.48;;;6.15;;
27566;SDS011;15006;48.584;9.186;2023-04-15T04:04:09;5.95;;;5.43;;
27566;SDS011;15006;48.584;9.186;2023-04-15T04:06:36;7.97;;;5.72;;
27566;SDS011;15006;48.584;9.186;2023-04-15T04:09:04;13.85;;;5.80;;
27566;SDS011;15006;48.584;9.186;2023-04-15T04:11:31;6.65;;;5.00;;
27566;SDS011;15006;48.584;9.186;2023-04-15T04:13:58;7.40;;;5.60;;
27566;SDS011;15006;48.584;9.186;2023-04-15T04:16:26;8.45;;;5.35;;
27566;SDS011;15006;48.584;9.186;2023-04-15T04:18:53;9.43;;;5.28;;
27566;SDS011;15006;48.584;9.186;2023-04-15T04:21:20;5.28;;;4.78;;
27566;SDS011;15006;48.584;9.186;2023-04-15T04:23:48;7.05;;;5.10;;
27566;SDS011;15006;48.584;9.186;2023-04-15T04:26:15;7.07;;;5.20;;
27566;SDS011;15006;48.584;9.186;2023-04-15T04:28:42;7.85;;;4.88;;
27566;SDS011;15006;48.584;9.186;2023-04-15T04:31:09;5.72;;;5.30;;
27566;SDS011;15006;48.584;9.186;2023-04-15T04:33:37;5.13;;;4.60;;
27566;SDS011;15006;48.584;9.186;2023-04-15T04:36:04;6.93;;;4.57;;
27566;SDS011;15006;48.584;9.186;2023-04-15T04:38:31;5.13;;;4.60;;
27566;SDS011;15006;48.584;9.186;2023-04-15T04:40:59;6.38;;;5.00;;
27566;SDS011;15006;48.584;9.186;2023-04-15T04:43:26;7.28;;;4.40;;
27566;SDS011;15006;48.584;9.186;2023-04-15T04:45:54;5.28;;;4.45;;
27566;SDS011;15006;48.584;9.186;2023-04-15T04:48:22;7.65;;;4.70;;
27566;SDS011;15006;48.584;9.186;2023-04-15T04:50:49;5.93;;;5.20;;
27566;SDS011;15006;48.584;9.186;2023-04-15T04:53:16;6.82;;;5.90;;
27566;SDS011;15006;48.584;9.186;2023-04-15T04:55:44;11.80;;;8.20;;
27566;SDS011;15006;48.584;9.186;2023-04-15T04:58:11;6.97;;;5.40;;
27566;SDS011;15006;48.584;9.186;2023-04-15T05:00:39;15.68;;;5.53;;
27566;SDS011;15006;48.584;9.186;2023-04-15T05:03:07;6.50;;;5.80;;
27566;SDS011;15006;48.584;9.186;2023-04-15T05:05:34;8.88;;;6.10;;
27566;SDS011;15006;48.584;9.186;2023-04-15T05:08:04;5.03;;;4.47;;
27566;SDS011;15006;48.584;9.186;2023-04-15T05:10:32;5.65;;;5.15;;
27566;SDS011;15006;48.584;9.186;2023-04-15T05:12:59;5.70;;;5.20;;
27566;SDS011;15006;48.584;9.186;2023-04-15T05:15:27;8.18;;;5.55;;
27566;SDS011;15006;48.584;9.186;2023-04-15T05:17:54;12.85;;;5.53;;
27566;SDS011;15006;48.584;9.186;2023-04-15T05:20:21;6.03;;;5.43;;
27566;SDS011;15006;48.584;9.186;2023-04-15T05:22:48;8.02;;;5.68;;
27566;SDS011;15006;48.584;9.186;2023-04-15T05:25:15;7.13;;;5.93;;
27566;SDS011;15006;48.584;9.186;2023-04-15T05:27:43;6.88;;;5.65;;
27566;SDS011;15006;48.584;9.186;2023-04-15T05:30:11;6.88;;;5.65;;
27566;SDS011;15006;48.584;9.186;2023-04-15T05:32:38;9.10;;;5.97;;
27566;SDS011;15006;48.584;9.186;2023-04-15T05:35:05;6.88;;;5.65;;
27566;SDS011;15006;48.584;9.186;2023-04-15T05:37:34;7.82;;;5.72;;
27566;SDS011;15006;48.584;9.186;2023-04-15T05:40:01;6.70;;;5.80;;
27566;SDS011;15006;48.584;9.186;2023-04-15T05:42:29;10.93;;;5.55;;
27566;SDS011;15006;48.584;9.186;2023-04-15T05:44:57;11.48;;;6.20;;
27566;SDS011;15006;48.584;9.186;2023-04-15T05:47:24;8.02;;;6.15;;
27566;SDS011;15006;48.584;9.186;2023-04-15T05:49:51;7.45;;;6.05;;
27566;SDS011;15006;48.584;9.186;2023-04-15T05:52:18;10.25;;;6.35;;
27566;SDS011;15006;48.584;9.186;2023-04-15T05:54:46;8.85;;;5.78;;
27566;SDS011;15006;48.584;9.186;2023-04-15T05:57:13;6.38;;;5.78;;
27566;SDS011;15006;48.584;9.186;2023-04-15T05:59:40;7.00;;;5.75;;
27566;SDS011;15006;48.584;9.186;2023-04-15T06:02:08;9.43;;;5.97;;
27566;SDS011;15006;48.584;9.186;2023-04-15T06:04:36;7.30;;;6.43;;
27566;SDS011;15006;48.584;9.186;2023-04-15T06:07:03;6.68;;;6.00;;
27566;SDS011;15006;48.584;9.186;2023-04-15T06:09:30;8.55;;;6.50;;
27566;SDS011;15006;48.584;9.186;2023-04-15T06:11:57;9.75;;;5.97;;
27566;SDS011;15006;48.584;9.186;2023-04-15T06:14:25;7.70;;;6.13;;
27566;SDS011;15006;48.584;9.186;2023-04-15T06:16:52;9.35;;;5.90;;
27566;SDS011;15006;48.584;9.186;2023-04-15T06:19:19;10.25;;;5.50;;
27566;SDS011;15006;48.584;9.186;2023-04-15T06:21:46;11.27;;;6.07;;
27566;SDS011;15006;48.584;9.186;2023-04-15T06:24:13;6.43;;;5.38;;
27566;SDS011;15006;48.584;9.186;2023-04-15T06:26:40;6.13;;;5.50;;
27566;SDS011;15006;48.584;9.186;2023-04-15T06:29:08;10.40;;;6.15;;
27566;SDS011;15006;48.584;9.186;2023-04-15T06:31:35;5.72;;;5.07;;
27566;SDS011;15006;48.584;9.186;2023-04-15T06:34:02;7.32;;;5.35;;
27566;SDS011;15006;48.584;9.186;2023-04-15T06:36:29;8.48;;;5.32;;
27566;SDS011;15006;48.584;9.186;2023-04-15T06:38:57;5.72;;;5.10;;
27566;SDS011;15006;48.584;9.186;2023-04-15T06:41:24;7.10;;;6.07;;
27566;SDS011;15006;48.584;9.186;2023-04-15T06:43:52;7.22;;;5.45;;
27566;SDS011;15006;48.584;9.186;2023-04-15T06:46:19;7.38;;;5.72;;
27566;SDS011;15006;48.584;9.186;2023-04-15T06:48:46;6.40;;;5.53;;
27566;SDS011;15006;48.584;9.186;2023-04-15T06:51:13;12.52;;;6.88;;
27566;SDS011;15006;48.584;9.186;2023-04-15T06:53:40;10.05;;;7.25;;
27566;SDS011;15006;48.584;9.186;2023-04-15T06:56:09;8.35;;;6.20;;
27566;SDS011;15006;48.584;9.186;2023-04-15T06:58:36;6.70;;;6.10;;
27566;SDS011;15006;48.584;9.186;2023-04-15T07:01:03;9.13;;;5.40;;
27566;SDS011;15006;48.584;9.186;2023-04-15T07:03:31;7.22;;;5.20;;
27566;SDS011;15006;48.584;9.186;2023-04-15T07:05:58;6.50;;;5.85;;
27566;SDS011;15006;48.584;9.186;2023-04-15T07:08:27;10.80;;;5.55;;
27566;SDS011;15006;48.584;9.186;2023-04-15T07:10:54;5.75;;;5.18;;
27566;SDS011;15006;48.584;9.186;2023-04-15T07:13:21;5.75;;;5.18;;
27566;SDS011;15006;48.584;9.186;2023-04-15T07:15:48;6.65;;;4.38;;
27566;SDS011;15006;48.584;9.186;2023-04-15T07:18:15;5.43;;;4.57;;
27566;SDS011;15006;48.584;9.186;2023-04-15T07:20:43;4.72;;;4.32;;
27566;SDS011;15006;48.584;9.186;2023-04-15T07:23:10;6.68;;;4.65;;
27566;SDS011;15006;48.584;9.186;2023-04-15T07:25:37;5.78;;;4.72;;
27566;SDS011;15006;48.584;9.186;2023-04-15T07:28:05;7.30;;;4.28;;
27566;SDS011;15006;48.584;9.186;2023-04-15T07:30:32;4.50;;;4.20;;
27566;SDS011;15006;48.584;9.186;2023-04-15T07:33:00;4.53;;;4.05;;
27566;SDS011;15006;48.584;9.186;2023-04-15T07:35:28;4.28;;;3.88;;
27566;SDS011;15006;48.584;9.186;2023-04-15T07:37:55;5.90;;;4.03;;
27566;SDS011;15006;48.584;9.186;2023-04-15T07:40:25;4.35;;;3.90;;
27566;SDS011;15006;48.584;9.186;2023-04-15T07:42:54;5.47;;;4.03;;
27566;SDS011;15006;48.584;9.186;2023-04-15T07:45:23;4.82;;;3.33;;
27566;SDS011;15006;48.584;9.186;2023-04-15T07:47:50;4.97;;;4.20;;
27566;SDS011;15006;48.584;9.186;2023-04-15T07:50:17;5.72;;;4.40;;
27566;SDS011;15006;48.584;9.186;2023-04-15T07:52:45;6.13;;;3.90;;
27566;SDS011;15006;48.584;9.186;2023-04-15T07:55:12;4.88;;;3.92;;
27566;SDS011;15006;48.584;9.186;2023-04-15T07:57:39;5.10;;;3.85;;
27566;SDS011;15006;48.584;9.186;2023-04-15T08:00:07;3.72;;;3.40;;
27566;SDS011;15006;48.584;9.186;2023-04-15T08:02:35;4.25;;;3.40;;
27566;SDS011;15006;48.584;9.186;2023-04-15T08:05:03;3.40;;;3.10;;
27566;SDS011;15006;48.584;9.186;2023-04-15T08:07:31;4.38;;;3.22;;
27566;SDS011;15006;48.584;9.186;2023-04-15T08:09:59;5.32;;;3.78;;
27566;SDS011;15006;48.584;9.186;2023-04-15T08:12:27;3.22;;;2.97;;
27566;SDS011;15006;48.584;9.186;2023-04-15T08:14:54;4.30;;;3.00;;
27566;SDS011;15006;48.584;9.186;2023-04-15T08:17:23;5.13;;;3.10;;
27566;SDS011;15006;48.584;9.186;2023-04-15T08:19:50;3.25;;;2.97;;
27566;SDS011;15006;48.584;9.186;2023-04-15T08:22:17;3.30;;;3.00;;
27566;SDS011;15006;48.584;9.186;2023-04-15T08:24:44;5.47;;;3.35;;
27566;SDS011;15006;48.584;9.186;2023-04-15T08:27:12;3.65;;;3.22;;
27566;SDS011;15006;48.584;9.186;2023-04-15T08:29:39;2.90;;;2.60;;
27566;SDS011;15006;48.584;9.186;2023-04-15T08:32:06;3.47;;;2.60;;
27566;SDS011;15006;48.584;9.186;2023-04-15T08:34:34;3.22;;;2.65;;
27566;SDS011;15006;48.584;9.186;2023-04-15T08:37:01;3.95;;;2.50;;
27566;SDS011;15006;48.584;9.186;2023-04-15T08:39:28;3.00;;;2.80;;
27566;SDS011;15006;48.584;9.186;2023-04-15T08:44:28;3.28;;;2.70;;
27566;SDS011;15006;48.584;9.186;2023-04-15T08:47:00;3.13;;;2.47;;
27566;SDS011;15006;48.584;9.186;2023-04-15T08:49:28;2.72;;;2.42;;
27566;SDS011;15006;48.584;9.186;2023-04-15T08:51:59;6.13;;;3.05;;
27566;SDS011;15006;48.584;9.186;2023-04-15T08:54:27;2.97;;;2.67;;
27566;SDS011;15006;48.584;9.186;2023-04-15T08:56:59;3.45;;;3.00;;
27566;SDS011;15006;48.584;9.186;2023-04-15T08:59:29;2.97;;;2.60;;
27566;SDS011;15006;48.584;9.186;2023-04-15T09:01:56;3.03;;;2.83;;
27566;SDS011;15006;48.584;9.186;2023-04-15T09:04:24;2.55;;;2.25;;
27566;SDS011;15006;48.584;9.186;2023-04-15T09:06:51;3.33;;;2.22;;
27566;SDS011;15006;48.584;9.186;2023-04-15T09:09:18;4.95;;;2.75;;
27566;SDS011;15006;48.584;9.186;2023-04-15T09:11:46;3.00;;;2.80;;
27566;SDS011;15006;48.584;9.186;2023-04-15T09:14:15;5.38;;;2.92;;
27566;SDS011;15006;48.584;9.186;2023-04-15T09:16:58;3.90;;;2.50;;
27566;SDS011;15006;48.584;9.186;2023-04-15T09:19:29;3.05;;;2.50;;
27566;SDS011;15006;48.584;9.186;2023-04-15T09:21:58;2.55;;;2.35;;
27566;SDS011;15006;48.584;9.186;2023-04-15T09:24:45;2.83;;;2.20;;
27566;SDS011;15006;48.584;9.186;2023-04-15T09:27:16;2.45;;;2.25;;
27566;SDS011;15006;48.584;9.186;2023-04-15T09:29:43;2.80;;;2.33;;
27566;SDS011;15006;48.584;9.186;2023-04-15T09:32:11;4.15;;;2.42;;
27566;SDS011;15006;48.584;9.186;2023-04-15T09:34:41;4.25;;;2.47;;
27566;SDS011;15006;48.584;9.186;2023-04-15T09:37:09;4.32;;;1.95;;
27566;SDS011;15006;48.584;9.186;2023-04-15T09:40:10;2.95;;;1.90;;
27566;SDS011;15006;48.584;9.186;2023-04-15T09:42:31;2.60;;;2.05;;
27566;SDS011;15006;48.584;9.186;2023-04-15T09:45:11;2.60;;;1.90;;
27566;SDS011;15006;48.584;9.186;2023-04-15T09:47:38;2.35;;;2.03;;
27566;SDS011;15006;48.584;9.186;2023-04-15T09:50:05;3.58;;;2.08;;
27566;SDS011;15006;48.584;9.186;2023-04-15T09:52:33;2.33;;;1.85;;
27566;SDS011;15006;48.584;9.186;2023-04-15T09:55:11;2.28;;;1.85;;
27566;SDS011;15006;48.584;9.186;2023-04-15T09:57:40;3.13;;;1.63;;
27566;SDS011;15006;48.584;9.186;2023-04-15T10:00:07;2.00;;;1.90;;
27566;SDS011;15006;48.584;9.186;2023-04-15T10:02:36;3.60;;;1.95;;
27566;SDS011;15006;48.584;9.186;2023-04-15T10:05:10;6.20;;;2.13;;
27566;SDS011;15006;48.584;9.186;2023-04-15T10:07:41;3.47;;;1.77;;
27566;SDS011;15006;48.584;9.186;2023-04-15T10:10:09;4.10;;;2.10;;
27566;SDS011;15006;48.584;9.186;2023-04-15T10:12:37;2.20;;;1.65;;
27566;SDS011;15006;48.584;9.186;2023-04-15T10:15:07;4.90;;;1.60;;
27566;SDS011;15006;48.584;9.186;2023-04-15T10:17:42;2.30;;;1.80;;
27566;SDS011;15006;48.584;9.186;2023-04-15T10:20:10;3.60;;;1.95;;
27566;SDS011;15006;48.584;9.186;2023-04-15T10:22:40;5.22;;;2.00;;
27566;SDS011;15006;48.584;9.186;2023-04-15T10:25:07;3.05;;;1.83;;
27566;SDS011;15006;48.584;9.186;2023-04-15T10:27:36;2.17;;;1.95;;
27566;SDS011;15006;48.584;9.186;2023-04-15T10:30:07;2.65;;;1.60;;
27566;SDS011;15006;48.584;9.186;2023-04-15T10:32:35;3.33;;;2.00;;
27566;SDS011;15006;48.584;9.186;2023-04-15T10:35:03;4.57;;;2.17;;
27566;SDS011;15006;48.584;9.186;2023-04-15T10:37:35;3.65;;;2.17;;
27566;SDS011;15006;48.584;9.186;2023-04-15T10:40:23;5.45;;;1.90;;
27566;SDS011;15006;48.584;9.186;2023-04-15T10:42:54;2.50;;;2.30;;
27566;SDS011;15006;48.584;9.186;2023-04-15T10:45:24;2.17;;;1.83;;
27566;SDS011;15006;48.584;9.186;2023-04-15T10:48:03;3.53;;;1.80;;
27566;SDS011;15006;48.584;9.186;2023-04-15T10:50:34;2.20;;;1.70;;
27566;SDS011;15006;48.584;9.186;2023-04-15T10:53:03;2.35;;;1.75;;
27566;SDS011;15006;48.584;9.186;2023-04-15T10:55:31;2.72;;;1.88;;
27566;SDS011;15006;48.584;9.186;2023-04-15T10:58:00;3.03;;;1.52;;
27566;SDS011;15006;48.584;9.186;2023-04-15T11:00:29;1.85;;;1.25;;
27566;SDS011;15006;48.584;9.186;2023-04-15T11:03:05;2.50;;;1.30;;
27566;SDS011;15006;48.584;9.186;2023-04-15T11:08:08;1.70;;;1.40;;
27566;SDS011;15006;48.584;9.186;2023-04-15T11:13:17;2.65;;;1.48;;
27566;SDS011;15006;48.584;9.186;2023-04-15T11:15:54;1.77;;;1.67;;
27566;SDS011;15006;48.584;9.186;2023-04-15T11:18:25;1.92;;;1.45;;
27566;SDS011;15006;48.584;9.186;2023-04-15T11:21:02;2.13;;;1.67;;
27566;SDS011;15006;48.584;9.186;2023-04-15T11:23:33;6.00;;;1.52;;
27566;SDS011;15006;48.584;9.186;2023-04-15T11:26:14;4.88;;;1.42;;
27566;SDS011;15006;48.584;9.186;2023-04-15T11:28:42;2.75;;;1.45;;
27566;SDS011;15006;48.584;9.186;2023-04-15T11:31:14;2.28;;;1.77;;
27566;SDS011;15006;48.584;9.186;2023-04-15T11:33:44;1.60;;;1.30;;
27566;SDS011;15006;48.584;9.186;2023-04-15T11:36:24;1.13;;;1.08;;
27566;SDS011;15006;48.584;9.186;2023-04-15T11:38:53;1.60;;;1.27;;
27566;SDS011;15006;48.584;9.186;2023-04-15T11:41:21;1.63;;;1.50;;
27566;SDS011;15006;48.584;9.186;2023-04-15T11:43:49;1.55;;;1.20;;
27566;SDS011;15006;48.584;9.186;2023-04-15T11:46:17;3.60;;;1.50;;
27566;SDS011;15006;48.584;9.186;2023-04-15T11:48:45;2.20;;;1.67;;
27566;SDS011;15006;48.584;9.186;2023-04-15T11:51:13;5.38;;;1.80;;
27566;SDS011;15006;48.584;9.186;2023-04-15T11:56:17;3.17;;;2.30;;
27566;SDS011;15006;48.584;9.186;2023-04-15T11:58:48;3.83;;;2.35;;
27566;SDS011;15006;48.584;9.186;2023-04-15T12:01:17;2.40;;;1.98;;
27566;SDS011;15006;48.584;9.186;2023-04-15T12:03:45;2.13;;;1.73;;
27566;SDS011;15006;48.584;9.186;2023-04-15T12:06:15;3.83;;;1.92;;
27566;SDS011;15006;48.584;9.186;2023-04-15T12:17:05;5.30;;;2.08;;
27566;SDS011;15006;48.584;9.186;2023-04-15T12:19:41;2.75;;;2.05;;
27566;SDS011;15006;48.584;9.186;2023-04-15T12:22:08;4.78;;;2.20;;
27566;SDS011;15006;48.584;9.186;2023-04-15T12:24:40;3.20;;;2.22;;
27566;SDS011;15006;48.584;9.186;2023-04-15T12:27:17;3.83;;;2.10;;
27566;SDS011;15006;48.584;9.186;2023-04-15T12:29:43;2.15;;;1.80;;
27566;SDS011;15006;48.584;9.186;2023-04-15T12:32:10;1.90;;;1.80;;
27566;SDS011;15006;48.584;9.186;2023-04-15T12:34:59;2.38;;;1.90;;
27566;SDS011;15006;48.584;9.186;2023-04-15T12:37:24;3.30;;;2.03;;
27566;SDS011;15006;48.584;9.186;2023-04-15T12:39:50;3.13;;;1.77;;
27566;SDS011;15006;48.584;9.186;2023-04-15T12:42:18;3.70;;;1.50;;
27566;SDS011;15006;48.584;9.186;2023-04-15T12:44:45;1.73;;;1.52;;
27566;SDS011;15006;48.584;9.186;2023-04-15T12:47:11;2.17;;;1.38;;
27566;SDS011;15006;48.584;9.186;2023-04-15T12:49:37;2.15;;;1.42;;
27566;SDS011;15006;48.584;9.186;2023-04-15T12:52:04;2.42;;;1.40;;
27566;SDS011;15006;48.584;9.186;2023-04-15T12:54:30;2.70;;;1.65;;
27566;SDS011;15006;48.584;9.186;2023-04-15T12:56:57;4.53;;;1.90;;
27566;SDS011;15006;48.584;9.186;2023-04-15T12:59:24;3.97;;;1.45;;
27566;SDS011;15006;48.584;9.186;2023-04-15T13:01:50;1.77;;;1.40;;
27566;SDS011;15006;48.584;9.186;2023-04-15T13:04:18;4.18;;;1.90;;
27566;SDS011;15006;48.584;9.186;2023-04-15T13:06:45;3.45;;;1.80;;
27566;SDS011;15006;48.584;9.186;2023-04-15T13:09:11;4.53;;;2.03;;
27566;SDS011;15006;48.584;9.186;2023-04-15T13:11:37;3.20;;;1.92;;
27566;SDS011;15006;48.584;9.186;2023-04-15T13:14:04;2.83;;;1.83;;
27566;SDS011;15006;48.584;9.186;2023-04-15T13:16:32;2.05;;;1.95;;
27566;SDS011;15006;48.584;9.186;2023-04-15T13:18:59;1.92;;;1.83;;
27566;SDS011;15006;48.584;9.186;2023-04-15T13:21:26;4.03;;;2.72;;
27566;SDS011;15006;48.584;9.186;2023-04-15T13:23:53;2.78;;;2.58;;
27566;SDS011;15006;48.584;9.186;2023-04-15T13:26:19;2.50;;;2.30;;
27566;SDS011;15006;48.584;9.186;2023-04-15T13:28:45;3.70;;;2.85;;
27566;SDS011;15006;48.584;9.186;2023-04-15T13:31:12;2.40;;;2.20;;
27566;SDS011;15006;48.584;9.186;2023-04-15T13:33:38;2.38;;;2.17;;
27566;SDS011;15006;48.584;9.186;2023-04-15T13:36:04;3.53;;;2.35;;
27566;SDS011;15006;48.584;9.186;2023-04-15T13:38:31;3.70;;;2.45;;
27566;SDS011;15006;48.584;9.186;2023-04-15T13:40:57;3.45;;;2.33;;
27566;SDS011;15006;48.584;9.186;2023-04-15T13:43:23;3.17;;;2.30;;
27566;SDS011;15006;48.584;9.186;2023-04-15T13:45:49;3.58;;;2.50;;
27566;SDS011;15006;48.584;9.186;2023-04-15T13:48:15;2.65;;;2.40;;
27566;SDS011;15006;48.584;9.186;2023-04-15T13:50:41;2.42;;;1.83;;
27566;SDS011;15006;48.584;9.186;2023-04-15T13:53:12;2.72;;;2.20;;
27566;SDS011;15006;48.584;9.186;2023-04-15T13:55:39;2.20;;;1.83;;
27566;SDS011;15006;48.584;9.186;2023-04-15T13:58:10;2.10;;;2.00;;
27566;SDS011;15006;48.584;9.186;2023-04-15T14:00:36;5.23;;;2.00;;
27566;SDS011;15006;48.584;9.186;2023-04-15T14:03:03;1.95;;;1.85;;
27566;SDS011;15006;48.584;9.186;2023-04-15T14:05:29;2.90;;;2.70;;
27566;SDS011;15006;48.584;9.186;2023-04-15T14:07:55;2.50;;;2.15;;
27566;SDS011;15006;48.584;9.186;2023-04-15T14:10:21;4.40;;;3.28;;
27566;SDS011;15006;48.584;9.186;2023-04-15T14:12:47;7.43;;;6.45;;
27566;SDS011;15006;48.584;9.186;2023-04-15T14:15:14;3.42;;;3.13;;
27566;SDS011;15006;48.584;9.186;2023-04-15T14:17:40;4.60;;;2.60;;
27566;SDS011;15006;48.584;9.186;2023-04-15T14:20:07;3.30;;;2.55;;
27566;SDS011;15006;48.584;9.186;2023-04-15T14:22:34;3.85;;;2.50;;
27566;SDS011;15006;48.584;9.186;2023-04-15T14:25:00;2.45;;;2.20;;
27566;SDS011;15006;48.584;9.186;2023-04-15T14:27:27;3.00;;;2.78;;
27566;SDS011;15006;48.584;9.186;2023-04-15T14:29:53;6.25;;;2.70;;
27566;SDS011;15006;48.584;9.186;2023-04-15T14:32:19;2.35;;;2.10;;
27566;SDS011;15006;48.584;9.186;2023-04-15T14:34:46;2.88;;;2.17;;
27566;SDS011;15006;48.584;9.186;2023-04-15T14:37:12;2.35;;;2.15;;
27566;SDS011;15006;48.584;9.186;2023-04-15T14:39:38;2.35;;;2.20;;
27566;SDS011;15006;48.584;9.186;2023-04-15T14:42:05;2.30;;;2.10;;
27566;SDS011;15006;48.584;9.186;2023-04-15T14:44:31;3.17;;;1.77;;
27566;SDS011;15006;48.584;9.186;2023-04-15T14:46:57;5.80;;;5.30;;
27566;SDS011;15006;48.584;9.186;2023-04-15T14:49:23;3.15;;;2.92;;
27566;SDS011;15006;48.584;9.186;2023-04-15T14:51:50;4.38;;;1.98;;
27566;SDS011;15006;48.584;9.186;2023-04-15T14:54:16;3.50;;;3.20;;
27566;SDS011;15006;48.584;9.186;2023-04-15T14:56:42;4.40;;;3.08;;
27566;SDS011;15006;48.584;9.186;2023-04-15T14:59:08;1.60;;;1.40;;
27566;SDS011;15006;48.584;9.186;2023-04-15T15:01:34;3.25;;;1.40;;
27566;SDS011;15006;48.584;9.186;2023-04-15T15:04:01;2.15;;;0.90;;
27566;SDS011;15006;48.584;9.186;2023-04-15T15:06:28;1.33;;;1.15;;
27566;SDS011;15006;48.584;9.186;2023-04-15T15:08:54;2.67;;;1.70;;
27566;SDS011;15006;48.584;9.186;2023-04-15T15:11:20;2.20;;;1.60;;